• Back
  •  
  • Position of Reservoir Gates
S.No.
No. of opened gates
Position of opening (In m)
Reporting Date
Reporting Time
Discharge in Cumecs
Discharge in Cusecs
Actual date and time of Gate opening
1
2
3
4
5
6
7
8
1 2 11/09/2012 1:46:31 PM 0
2 2 11/09/2012 1:46:31 PM 124.6
3 8 2.5 22/08/2020 8:00:00 AM 512 18081.28
4 8 2.5 22/08/2020 8:00:00 PM 512 18081.28
5 4 2.5 23/08/2020 8:00:00 AM 256 9040.64
6 1 2.5 23/08/2020 4:00:00 PM 64 2260.16
7 1 2.5 23/08/2020 12:00:00 PM 64 2260.16
8 1 2.5 24/08/2020 8:00:00 AM 64 2260.16 Gate opened on Dated 23/08/2020 at 12.00PM
9 0 0 24/08/2020 12:15:00 AM 0 0 All gates are closed
10 2 2.5 28/08/2020 8:00:00 AM 128 4520.32 2 Gates opened since 1 AM morning today.
11 2 2.5 28/08/2020 4:45:00 PM 128 4520.32
12 2 2.5 29/08/2020 12:00:00 AM 128 4520.32 Actual Date of Gate Opening 28.08.2020 & Time 4.45 PM
13 9 2.5 29/08/2020 11:30:00 AM 576 20341.44
14 11 2.5 29/08/2020 8:00:00 PM 832 29382.08
15 12 2.5 30/08/2020 12:00:00 AM 768 27121.92 Gates opened on dated 29.08.2020 at 4.30PM
16 11 2.5 30/08/2020 8:00:00 AM 704 24861.76
17 11 2.5 30/08/2020 12:00:00 PM 704 24861.76
18 3 2.5 30/08/2020 4:00:00 PM 192 6780.48
19 3 2.5 31/08/2020 12:00:00 AM 192 6780.48 Gates Opened on Dated 30.08.2020 at 4.00 PM
20 0 0 31/08/2020 1:00:00 AM 0 0
21 1 2.5 10/09/2020 8:00:00 PM 64 2260.16
22 1 2.5 11/09/2020 3:15:00 PM 64 2260.16
23 1 2.5 12/09/2020 12:00:00 AM 64 2260.16
24 2 1.87 23/09/2020 2:44:00 PM 96 3390.24
25 2 1.87 23/09/2020 4:00:00 PM 96 3390.24
26 2 2.5 23/09/2020 8:00:00 PM 128 4520.32
27 2 2 25/09/2020 5:00:00 PM 96 3390.24
28 0 0 25/09/2020 8:00:00 PM 0 0 All gates are closed
29 0 0 28/09/2020 4:00:00 PM 0 0 ALL GATES ARE CLOSED
30 1 2 15/08/2019 6:30:00 PM 63 2224.84
31 2 1.5 15/08/2019 7:00:00 PM 93.44 3299.83
32 2 1.75 16/08/2019 6:15:00 AM 120 4237.8
33 0 0 16/08/2019 8:00:00 AM 0 0 all gates are closed at 8:0am
34 2 1.75 17/08/2019 1:30:00 PM 120 4237.8
35 2 2 17/08/2019 4:30:00 PM 124.6 4400.25
36 0 0 17/08/2019 6:20:00 PM 0 0 All gates are closed
37 3 2 19/08/2019 4:00:00 PM 187 6603.9
38 3 2 19/08/2019 12:00:00 PM 186.8 6596.84
39 0 0 19/08/2019 6:50:00 PM 0 0 All gates are closed
40 3 2 22/08/2019 5:15:00 PM 62.3 2200.12
41 0 0 22/08/2019 8:45:00 PM 0 0 All gates are closed
42 3 2 24/08/2019 9:30:00 AM 186.9 6600.37
43 1 2 24/08/2019 8:00:00 PM 62.3 2200.12
44 1 2 25/08/2019 12:01:00 AM 62.3 2200.12
45 0 0 25/08/2019 12:10:00 AM 0 0
46 4 2 25/08/2019 6:00:00 PM 250 8828.75
47 4 2 26/08/2019 12:06:00 AM 250 8828.75
48 0 0 26/08/2019 12:40:00 AM 0 0 all gates are closed
49 3 2 01/09/2019 4:00:00 PM 186.9 6600.37
50 0 0 02/09/2019 8:00:00 AM 0 0 all gates are closed
51 3 2 02/09/2019 7:00:00 AM 186.9 6600.37
52 3 2 03/09/2019 10:00:00 AM 187 6603.9
53 0 0 03/09/2019 2:35:00 PM 0 0 all gates are closed at 2:35pm
54 3 2 05/09/2019 8:00:00 AM 1698 59964.87
55 0 0 05/09/2019 12:00:00 PM 0 0 All gates closed at 12 Noon Today.
56 3 2 06/09/2019 7:00:00 PM 187 6603.9
57 5 2 08/09/2019 11:00:00 AM 311.5 11000.62
58 5 2 08/09/2019 4:00:00 PM 311.5 11000.62
59 5 2 09/09/2019 3:00:00 AM 311.5 11000.62
60 6 2 09/09/2019 8:00:00 AM 373.8 13200.75
61 3 2 09/09/2019 6:00:00 PM 186.8 6596.84
62 1 2 09/09/2019 7:00:00 PM 62 2189.53
63 2 2 10/09/2019 8:00:00 AM 124.6 4400.25
64 3 2 10/09/2019 4:00:00 PM 186.8 6596.84
65 6 2 11/09/2019 6:00:00 AM 373.7 13197.22
66 6 2 11/09/2019 8:00:00 AM 373.7 13197.22
67 2 2 12/09/2019 9:00:00 AM 124.6 4400.25
68 3 2 13/09/2019 12:01:00 AM 187 6603.9
69 2 2 13/09/2019 8:00:00 AM 124.6 4400.25
70 3 2 13/09/2019 9:02:00 AM 187 6603.9
71 0 0 14/09/2019 8:00:00 AM 0 0 all gates are closed
72 3 2 14/09/2019 12:00:00 PM 187 6603.9
73 3 2 14/09/2019 12:01:00 AM 187 6603.9
74 1 2 15/09/2019 8:00:00 AM 60.19 2125.61
75 1 2 15/09/2019 9:00:00 AM 62.3 2200.12
76 0 0 15/09/2019 1:00:00 PM 0 0 all gates are closed at 1:0pm today
77 3 2 17/09/2019 9:20:00 AM 186.9 6600.37
78 3 2 17/09/2019 8:00:00 AM 186.9 6600.37
79 3 2 18/09/2019 12:01:00 AM 186.9 6600.37 gate opening since 17/9/2019at 4:0 pm
80 0 0 18/09/2019 1:00:00 AM 0 0
81 3 2 19/09/2019 8:20:00 AM 186.9 6600.37
82 0 0 21/09/2019 9:00:00 AM 0 0 All Gates are closed.
83 0 0 22/09/2019 10:00:00 AM 0 0 All Gates are closed
84 0 0 27/09/2019 3:00:00 PM 0 0 all gates are closed
85 2 2 28/09/2019 9:10:00 AM 124.6 4400.25
86 2 2 27/09/2019 8:00:00 AM 124.6 4400.25
87 5 2.6 28/09/2019 4:00:00 PM 1458 51489.27
88 0 0 28/09/2019 7:00:00 PM 0 0 All gates are closed
89 0 0 29/09/2019 11:00:00 AM 0 0 All Gates are closed.
90 3 2 30/09/2019 6:00:00 PM 186.8 6596.84
91 3 2 01/10/2019 7:00:00 PM 186.8 6596.84
92 1 0.6 13/10/2019 9:00:00 PM 78 2754.57
93 2 2 07/10/2019 5:30:00 PM 124.6 4400.25
Powered by © Water Resources Department (MP). All Rights Reserved.